createdAt,value
2019-05-12T00:01:09.337Z,10.00
2019-05-12T00:03:43.082Z,8.00
2019-05-12T00:06:17.666Z,11.25
2019-05-12T00:08:51.556Z,10.75
2019-05-12T00:11:25.269Z,11.75
2019-05-12T00:13:58.962Z,10.00
2019-05-12T00:16:32.654Z,13.00
2019-05-12T00:19:09.076Z,11.00
2019-05-12T00:21:41.826Z,13.75
2019-05-12T00:24:18.506Z,10.50
2019-05-12T00:26:51.556Z,9.50
2019-05-12T00:29:25.249Z,10.50
2019-05-12T00:31:58.948Z,9.00
2019-05-12T00:34:32.652Z,11.00
2019-05-12T00:37:08.177Z,9.25
2019-05-12T00:39:41.741Z,10.25
2019-05-12T00:42:15.426Z,11.75
2019-05-12T00:44:49.134Z,11.00
2019-05-12T00:47:22.833Z,11.50
2019-05-12T00:49:58.319Z,11.25
2019-05-12T00:52:32.116Z,11.60
2019-05-12T00:55:08.029Z,10.25
2019-05-12T00:57:41.249Z,11.80
2019-05-12T01:00:14.947Z,10.00
2019-05-12T01:02:48.680Z,9.50
2019-05-12T01:05:22.399Z,10.60
2019-05-12T01:07:58.241Z,7.75
2019-05-12T01:10:31.540Z,10.25
2019-05-12T01:13:08.249Z,11.00
2019-05-12T01:15:41.227Z,10.80
2019-05-12T01:18:14.931Z,7.75
2019-05-12T01:20:48.649Z,11.25
2019-05-12T01:23:23.467Z,11.20
2019-05-12T01:25:58.604Z,8.00
2019-05-12T01:28:32.694Z,12.25
2019-05-12T01:31:08.456Z,11.00
2019-05-12T01:33:41.773Z,11.25
2019-05-12T01:36:15.470Z,11.60
2019-05-12T01:38:49.178Z,12.50
2019-05-12T01:41:22.879Z,10.00
2019-05-12T01:43:58.403Z,11.00
2019-05-12T01:46:32.002Z,11.25
2019-05-12T01:49:07.995Z,10.00
2019-05-12T01:51:41.085Z,11.00
2019-05-12T01:54:15.268Z,14.25
2019-05-12T01:56:49.172Z,15.50
2019-05-12T01:59:22.880Z,11.25
2019-05-12T02:01:58.087Z,10.40
2019-05-12T02:04:31.944Z,13.00
2019-05-12T02:07:08.226Z,12.00
2019-05-12T02:09:41.844Z,11.50
2019-05-12T02:12:15.544Z,9.50
2019-05-12T02:14:49.245Z,14.75
2019-05-12T02:17:22.938Z,11.00
2019-05-12T02:19:58.571Z,7.60
2019-05-12T02:22:32.023Z,10.25
2019-05-12T02:25:07.956Z,10.60
2019-05-12T02:27:41.168Z,10.50
2019-05-12T02:30:15.121Z,8.60
2019-05-12T02:32:53.538Z,8.00
2019-05-12T02:35:24.847Z,13.75
2019-05-12T02:37:58.707Z,14.60
2019-05-12T02:40:34.725Z,11.75
2019-05-12T02:43:07.806Z,10.40
2019-05-12T02:45:44.518Z,10.25
2019-05-12T02:48:16.911Z,10.20
2019-05-12T02:50:50.593Z,11.50
2019-05-12T02:53:24.969Z,12.75
2019-05-12T02:55:58.892Z,14.00
2019-05-12T02:58:34.664Z,12.75
2019-05-12T03:01:08.471Z,13.25
2019-05-12T03:03:44.140Z,11.75
2019-05-12T03:06:18.311Z,15.60
2019-05-12T03:08:54.946Z,16.75
2019-05-12T03:11:27.801Z,14.50
2019-05-12T03:14:03.920Z,14.00
2019-05-12T03:16:36.937Z,16.80
2019-05-12T03:19:14.760Z,19.25
2019-05-12T03:21:46.761Z,12.00
2019-05-12T03:24:20.493Z,10.75
2019-05-12T03:26:55.343Z,15.25
2019-05-12T03:29:29.243Z,17.00
2019-05-12T03:32:08.248Z,11.60
2019-05-12T03:34:38.977Z,15.00
2019-05-12T03:37:17.973Z,16.75
2019-05-12T03:39:48.582Z,16.50
2019-05-12T03:42:25.147Z,20.00
2019-05-12T03:44:57.682Z,16.25
2019-05-12T03:47:31.385Z,13.50
2019-05-12T03:50:06.047Z,16.00
2019-05-12T03:52:39.761Z,19.00
2019-05-12T03:55:30.815Z,8.00
2019-05-12T03:57:50.749Z,14.20
2019-05-12T04:00:24.951Z,13.00
2019-05-12T04:02:58.736Z,17.75
2019-05-12T04:05:34.993Z,18.75
2019-05-12T04:08:08.326Z,13.50
2019-05-12T04:10:45.160Z,14.00
2019-05-12T04:13:17.495Z,13.00
2019-05-12T04:15:51.185Z,14.40
2019-05-12T04:18:24.920Z,18.50
2019-05-12T04:20:58.709Z,13.75
2019-05-12T04:23:34.847Z,11.00
2019-05-12T04:26:12.149Z,12.50
2019-05-12T04:28:45.572Z,13.00
2019-05-12T04:31:18.650Z,16.00
2019-05-12T04:33:54.683Z,13.75
2019-05-12T04:36:27.752Z,13.50
2019-05-12T04:39:04.220Z,13.50
2019-05-12T04:41:36.870Z,13.00
2019-05-12T04:44:10.576Z,14.50
2019-05-12T04:46:47.078Z,16.00
2019-05-12T04:49:19.659Z,15.75
2019-05-12T04:51:54.612Z,12.75
2019-05-12T04:54:28.564Z,13.25
2019-05-12T04:57:04.165Z,10.00
2019-05-12T04:59:37.662Z,16.50
2019-05-12T05:02:11.365Z,15.80
2019-05-12T05:04:45.081Z,14.00
2019-05-12T05:07:18.792Z,13.50
2019-05-12T05:09:54.850Z,14.40
2019-05-12T05:12:27.877Z,13.25
2019-05-12T05:15:01.647Z,13.75
2019-05-12T05:17:35.350Z,17.20
2019-05-12T05:20:09.035Z,16.50
2019-05-12T05:22:44.029Z,13.00
2019-05-12T05:25:18.043Z,13.00
2019-05-12T05:27:53.335Z,13.50
2019-05-12T05:30:27.154Z,12.00
2019-05-12T05:33:00.844Z,11.50
2019-05-12T05:35:39.320Z,12.00
2019-05-12T05:38:10.721Z,14.50
2019-05-12T05:40:45.471Z,15.20
2019-05-12T05:43:19.220Z,17.25
2019-05-12T05:45:56.154Z,14.00
2019-05-12T05:48:28.401Z,10.50
2019-05-12T05:51:07.427Z,12.50
2019-05-12T05:53:37.592Z,11.00
2019-05-12T05:56:11.288Z,12.75
2019-05-12T05:58:47.002Z,15.00
2019-05-12T06:01:20.424Z,8.20
2019-05-12T06:03:58.393Z,15.25
2019-05-12T06:06:29.549Z,16.00
2019-05-12T06:09:04.474Z,17.00
2019-05-12T06:11:38.194Z,12.50
2019-05-12T06:14:14.016Z,13.00
2019-05-12T06:16:47.325Z,14.00
2019-05-12T06:19:24.093Z,14.50
2019-05-12T06:21:56.506Z,13.00
2019-05-12T06:24:30.220Z,11.50
2019-05-12T06:27:14.321Z,9.50
2019-05-12T06:29:39.327Z,11.00
2019-05-12T06:32:14.267Z,9.60
2019-05-12T06:34:50.880Z,10.25
2019-05-12T06:37:23.741Z,11.25
2019-05-12T06:40:00.467Z,13.00
2019-05-12T06:42:34.192Z,11.00
2019-05-12T06:45:08.053Z,9.00
2019-05-12T06:47:45.272Z,9.00
2019-05-12T06:50:17.158Z,9.75
2019-05-12T06:52:52.761Z,10.00
2019-05-12T06:55:28.597Z,9.75
2019-05-12T06:58:01.651Z,9.00
2019-05-12T07:00:35.533Z,8.00
2019-05-12T07:03:09.360Z,10.00
2019-05-12T07:05:45.194Z,6.00
2019-05-12T07:08:26.474Z,9.00
2019-05-12T07:11:02.093Z,9.75
2019-05-12T07:13:29.617Z,9.25
2019-05-12T07:16:03.822Z,11.50
2019-05-12T07:18:37.665Z,10.00
2019-05-12T07:21:17.829Z,13.00
2019-05-12T07:23:46.769Z,7.00
2019-05-12T07:26:20.479Z,10.75
2019-05-12T07:28:54.247Z,9.00
2019-05-12T07:31:27.967Z,9.25
2019-05-12T07:34:05.352Z,5.00
2019-05-12T07:36:37.137Z,7.20
2019-05-12T07:39:10.850Z,9.00
2019-05-12T07:41:50.756Z,10.25
2019-05-12T07:44:22.206Z,6.25
2019-05-12T07:46:55.502Z,5.75
2019-05-12T07:49:33.973Z,9.40
2019-05-12T07:52:04.600Z,3.00
2019-05-12T07:54:39.611Z,5.00
2019-05-12T07:57:17.273Z,3.00
2019-05-12T07:59:48.857Z,3.00
2019-05-12T08:02:31.387Z,3.00
2019-05-12T08:04:57.970Z,3.00
2019-05-12T08:07:33.666Z,3.00
2019-05-12T08:10:15.909Z,3.00
2019-05-12T08:12:44.520Z,3.00
2019-05-12T08:15:18.350Z,2.60
2019-05-12T08:17:57.757Z,3.00
2019-05-12T08:20:27.464Z,3.40
2019-05-12T08:23:05.738Z,1.00
2019-05-12T08:25:36.556Z,2.25
2019-05-12T08:28:15.346Z,2.50
2019-05-12T08:30:50.496Z,3.00
2019-05-12T08:33:21.072Z,2.50
2019-05-12T08:35:55.326Z,3.00
2019-05-12T08:38:29.251Z,6.25
2019-05-12T08:41:04.240Z,11.25
2019-05-12T08:43:40.695Z,5.25
2019-05-12T08:46:15.669Z,2.00
2019-05-12T08:48:51.576Z,7.00
2019-05-12T08:51:25.062Z,5.00
2019-05-12T08:54:02.312Z,7.00
2019-05-12T08:56:34.373Z,5.00
2019-05-12T08:59:09.636Z,5.00
2019-05-12T09:01:43.879Z,5.00
2019-05-12T09:04:18.445Z,2.00
2019-05-12T09:06:56.387Z,7.00
2019-05-12T09:09:27.633Z,5.00
2019-05-12T09:12:03.422Z,6.00
2019-05-12T09:14:41.384Z,3.00
2019-05-12T09:17:13.846Z,3.00
2019-05-12T09:19:47.728Z,2.40
2019-05-12T09:22:23.985Z,6.25
2019-05-12T09:24:58.504Z,14.00
2019-05-12T09:27:33.470Z,7.50
2019-05-12T09:30:09.655Z,7.00
2019-05-12T09:32:45.423Z,2.00
2019-05-12T09:35:18.171Z,4.20
2019-05-12T09:37:53.514Z,2.00
2019-05-12T09:40:27.446Z,4.25
2019-05-12T09:43:08.731Z,3.00
2019-05-12T09:45:40.757Z,7.75
2019-05-12T09:48:13.852Z,11.75
2019-05-12T09:50:51.550Z,8.00
2019-05-12T09:53:23.682Z,6.00
2019-05-12T09:55:58.581Z,7.00
2019-05-12T09:58:33.732Z,6.50
2019-05-12T10:01:07.590Z,6.00
2019-05-12T10:03:43.537Z,4.00
2019-05-12T10:06:20.993Z,2.00
2019-05-12T10:08:54.671Z,5.50
2019-05-12T10:11:27.504Z,1.00
2019-05-12T10:14:06.407Z,2.00
2019-05-12T10:16:39.463Z,1.25
2019-05-12T10:19:14.435Z,3.00
2019-05-12T10:21:49.145Z,8.00
2019-05-12T10:24:23.709Z,2.00
2019-05-12T10:26:57.476Z,3.00
2019-05-12T10:29:32.438Z,1.25
2019-05-12T10:32:06.247Z,1.00
2019-05-12T10:34:40.444Z,2.00
2019-05-12T10:37:14.276Z,4.00
2019-05-12T10:39:47.977Z,2.40
2019-05-12T10:42:21.679Z,3.50
2019-05-12T10:44:56.735Z,2.00
2019-05-12T10:47:30.655Z,3.00
2019-05-12T10:50:05.837Z,3.00
2019-05-12T10:52:39.587Z,3.50
2019-05-12T10:55:14.229Z,3.25
2019-05-12T10:57:52.979Z,3.00
2019-05-12T11:00:25.229Z,4.75
2019-05-12T11:03:01.582Z,4.50
2019-05-12T11:05:34.402Z,4.00
2019-05-12T11:08:11.087Z,4.20
2019-05-12T11:10:43.637Z,5.00
2019-05-12T11:13:18.152Z,2.00
2019-05-12T11:15:52.079Z,3.00
2019-05-12T11:18:30.523Z,2.75
2019-05-12T11:21:03.429Z,3.75
2019-05-12T11:23:36.879Z,3.75
2019-05-12T11:26:10.570Z,1.75
2019-05-12T11:28:44.265Z,5.00
2019-05-12T11:31:18.316Z,7.00
2019-05-12T11:33:53.953Z,7.00
2019-05-12T11:36:27.400Z,4.50
2019-05-12T11:39:01.106Z,4.25
2019-05-12T11:41:34.891Z,8.00
2019-05-12T11:44:08.608Z,7.25
2019-05-12T11:46:44.162Z,1.75
2019-05-12T11:49:21.673Z,5.20
2019-05-12T11:51:54.261Z,2.00
2019-05-12T11:54:28.228Z,4.00
2019-05-12T11:57:01.939Z,2.00
2019-05-12T11:59:35.639Z,1.00
2019-05-12T12:02:09.326Z,1.40
2019-05-12T12:04:43.534Z,1.00
2019-05-12T12:07:17.312Z,1.00
2019-05-12T12:09:56.194Z,1.75
2019-05-12T12:12:26.416Z,1.00
2019-05-12T12:15:00.226Z,2.00
2019-05-12T12:17:35.766Z,1.75
2019-05-12T12:20:13.938Z,2.00
2019-05-12T12:22:45.510Z,3.00
2019-05-12T12:25:19.201Z,1.00
2019-05-12T12:27:53.694Z,1.00
2019-05-12T12:30:27.678Z,1.75
2019-05-12T12:33:03.635Z,1.20
2019-05-12T12:35:36.824Z,2.00
2019-05-12T12:38:10.527Z,2.00
2019-05-12T12:40:44.344Z,0.00
2019-05-12T12:43:18.030Z,1.00
2019-05-12T12:45:51.738Z,2.25
2019-05-12T12:48:29.604Z,2.25
2019-05-12T12:51:00.856Z,4.50
2019-05-12T12:53:34.561Z,2.00
2019-05-12T12:56:08.261Z,2.00
2019-05-12T12:58:43.916Z,3.00
2019-05-12T13:01:23.252Z,2.00
2019-05-12T13:03:53.686Z,3.00
2019-05-12T13:06:27.434Z,1.00
2019-05-12T13:09:01.137Z,1.75
2019-05-12T13:11:35.092Z,2.75
2019-05-12T13:14:08.847Z,2.80
2019-05-12T13:16:43.679Z,1.75
2019-05-12T13:19:17.632Z,2.80
2019-05-12T13:21:53.208Z,2.00
2019-05-12T13:24:26.739Z,2.40
2019-05-12T13:27:00.435Z,2.00
2019-05-12T13:29:38.099Z,2.75
2019-05-12T13:32:09.530Z,2.00
2019-05-12T13:34:43.247Z,2.00
2019-05-12T13:37:19.510Z,3.00
2019-05-12T13:39:56.877Z,2.50
2019-05-12T13:42:30.370Z,2.00
2019-05-12T13:45:05.122Z,3.75
2019-05-12T13:47:39.986Z,3.00
2019-05-12T13:50:21.496Z,2.60
2019-05-12T13:52:49.415Z,3.75
2019-05-12T13:55:23.964Z,2.00
2019-05-12T13:57:57.991Z,1.80
2019-05-12T14:00:33.625Z,1.00
2019-05-12T14:03:09.517Z,3.00
2019-05-12T14:05:50.469Z,4.00
2019-05-12T14:08:17.999Z,4.00
2019-05-12T14:10:54.008Z,1.40
2019-05-12T14:13:27.110Z,2.00
2019-05-12T14:16:02.834Z,2.00
2019-05-12T14:18:36.473Z,1.75
2019-05-12T14:21:10.297Z,3.00
2019-05-12T14:23:43.992Z,1.80
2019-05-12T14:26:17.704Z,1.00
2019-05-12T14:28:53.331Z,1.00
2019-05-12T14:31:30.614Z,1.20
2019-05-12T14:34:04.199Z,2.00
2019-05-12T14:36:37.611Z,2.50
2019-05-12T14:39:13.351Z,2.00
2019-05-12T14:41:53.216Z,1.75
2019-05-12T14:44:23.750Z,1.25
2019-05-12T14:46:57.684Z,1.00
2019-05-12T14:49:33.219Z,1.75
2019-05-12T14:52:06.772Z,2.00
2019-05-12T14:54:40.477Z,2.00
2019-05-12T14:57:14.192Z,1.75
2019-05-12T14:59:47.905Z,2.40
2019-05-12T15:02:25.473Z,6.00
2019-05-12T15:05:00.151Z,2.00
2019-05-12T15:07:32.423Z,2.00
2019-05-12T15:10:08.543Z,1.00
2019-05-12T15:12:43.850Z,2.00
2019-05-12T15:15:20.506Z,1.00
2019-05-12T15:17:56.701Z,2.00
2019-05-12T15:20:28.129Z,1.00
2019-05-12T15:23:03.784Z,0.50
2019-05-12T15:25:37.301Z,1.00
2019-05-12T15:28:11.045Z,1.60
2019-05-12T15:30:44.751Z,2.25
2019-05-12T15:33:18.443Z,1.00
2019-05-12T15:35:54.427Z,1.00
2019-05-12T15:38:29.199Z,1.00
2019-05-12T15:41:04.198Z,1.00
2019-05-12T15:43:44.248Z,1.00
2019-05-12T15:46:16.326Z,1.75
2019-05-12T15:48:53.769Z,0.00
2019-05-12T15:51:35.052Z,3.60
2019-05-12T15:54:11.591Z,1.75
2019-05-12T15:56:42.088Z,1.60
2019-05-12T15:59:17.378Z,1.50
2019-05-12T16:01:53.297Z,2.00
2019-05-12T16:04:26.785Z,2.00
2019-05-12T16:07:00.479Z,1.00
2019-05-12T16:09:34.569Z,1.20
2019-05-12T16:12:18.787Z,1.25
2019-05-12T16:14:44.269Z,2.00
2019-05-12T16:17:24.665Z,4.20
2019-05-12T16:19:54.131Z,2.00
2019-05-12T16:22:30.692Z,2.00
2019-05-12T16:25:05.226Z,2.80
2019-05-12T16:27:38.934Z,2.00
2019-05-12T16:30:13.950Z,2.40
2019-05-12T16:32:48.226Z,2.00
2019-05-12T16:35:26.381Z,2.00
2019-05-12T16:37:57.411Z,1.60
2019-05-12T16:40:31.115Z,3.00
2019-05-12T16:43:04.816Z,2.00
2019-05-12T16:45:38.536Z,1.25
2019-05-12T16:48:28.680Z,2.00
2019-05-12T16:50:47.615Z,0.75
2019-05-12T16:53:25.800Z,2.00
2019-05-12T16:55:56.721Z,3.00
2019-05-12T16:58:33.322Z,2.40
2019-05-12T17:01:05.825Z,2.50
2019-05-12T17:03:39.535Z,1.40
2019-05-12T17:06:14.289Z,1.80
2019-05-12T17:08:48.106Z,2.25
2019-05-12T17:11:27.885Z,2.00
2019-05-12T17:14:04.016Z,2.75
2019-05-12T17:16:33.519Z,1.00
2019-05-12T17:19:10.448Z,2.00
2019-05-12T17:21:44.108Z,3.40
2019-05-12T17:24:18.037Z,9.40
2019-05-12T17:26:51.742Z,3.00
2019-05-12T17:29:25.437Z,2.25
2019-05-12T17:31:59.151Z,2.75
2019-05-12T17:34:33.988Z,2.25
2019-05-12T17:37:07.933Z,4.00
2019-05-12T17:39:43.638Z,7.80
2019-05-12T17:42:21.385Z,6.25
2019-05-12T17:44:54.468Z,4.00
2019-05-12T17:47:27.857Z,6.00
2019-05-12T17:50:06.828Z,9.00
2019-05-12T17:52:36.988Z,3.50
2019-05-12T17:55:10.978Z,5.20
2019-05-12T17:57:44.786Z,7.20
2019-05-12T18:00:18.490Z,4.00
2019-05-12T18:02:56.265Z,8.00
2019-05-12T18:05:27.602Z,4.00
2019-05-12T18:08:01.398Z,2.00
2019-05-12T18:10:37.947Z,2.50
2019-05-12T18:13:15.071Z,2.75
2019-05-12T18:15:45.989Z,2.50
2019-05-12T18:18:24.101Z,1.00
2019-05-12T18:20:55.707Z,1.00
2019-05-12T18:23:30.441Z,1.25
2019-05-12T18:26:11.811Z,1.25
2019-05-12T18:28:39.712Z,2.00
2019-05-12T18:31:13.849Z,1.25
2019-05-12T18:33:52.101Z,2.00
2019-05-12T18:36:23.682Z,2.25
2019-05-12T18:39:09.222Z,1.75
2019-05-12T18:41:33.670Z,1.00
2019-05-12T18:44:07.649Z,2.50
2019-05-12T18:46:44.965Z,1.50
2019-05-12T18:49:16.743Z,1.00
2019-05-12T18:51:55.207Z,2.00
2019-05-12T18:54:25.820Z,1.25
2019-05-12T18:57:04.865Z,1.00
2019-05-12T18:59:34.951Z,1.00
2019-05-12T19:02:08.652Z,1.00
2019-05-12T19:04:44.348Z,0.00
2019-05-12T19:07:17.727Z,1.00
2019-05-12T19:09:51.507Z,0.75
2019-05-12T19:12:32.216Z,1.00
2019-05-12T19:15:00.583Z,2.00
2019-05-12T19:17:34.348Z,2.00
2019-05-12T19:20:08.052Z,1.40
2019-05-12T19:22:48.248Z,2.00
2019-05-12T19:25:19.370Z,1.20
2019-05-12T19:28:04.580Z,2.75
2019-05-12T19:30:27.996Z,1.75
2019-05-12T19:33:06.409Z,1.00
2019-05-12T19:35:38.060Z,2.00
2019-05-12T19:38:15.091Z,2.40
2019-05-12T19:40:55.106Z,2.75
2019-05-12T19:43:23.793Z,2.00
2019-05-12T19:46:02.954Z,2.00
2019-05-12T19:48:36.763Z,1.00
2019-05-12T19:51:20.764Z,2.00
2019-05-12T19:53:43.931Z,1.00
2019-05-12T19:56:19.016Z,1.40
2019-05-12T19:58:53.825Z,2.00
2019-05-12T20:01:32.739Z,3.00
2019-05-12T20:04:03.709Z,5.00
2019-05-12T20:06:37.586Z,3.25
2019-05-12T20:09:14.287Z,2.00
2019-05-12T20:11:46.704Z,2.00
2019-05-12T20:14:21.491Z,2.20
2019-05-12T20:16:55.816Z,3.00
2019-05-12T20:19:29.503Z,3.00
2019-05-12T20:22:03.593Z,2.50
2019-05-12T20:24:37.392Z,3.00
2019-05-12T20:27:17.146Z,3.00
2019-05-12T20:29:46.498Z,1.00
2019-05-12T20:32:20.197Z,1.25
2019-05-12T20:34:55.349Z,1.50
2019-05-12T20:37:29.276Z,6.00
2019-05-12T20:40:05.261Z,4.00
2019-05-12T20:42:42.217Z,3.75
2019-05-12T20:45:14.618Z,2.75
2019-05-12T20:47:48.335Z,1.40
2019-05-12T20:50:24.188Z,2.00
2019-05-12T20:52:58.876Z,5.25
2019-05-12T20:55:39.512Z,2.75
2019-05-12T20:58:08.309Z,2.25
2019-05-12T21:00:45.551Z,2.00
2019-05-12T21:03:17.404Z,2.00
2019-05-12T21:05:58.109Z,1.00
2019-05-12T21:08:26.467Z,3.00
2019-05-12T21:11:00.181Z,2.00
2019-05-12T21:13:34.540Z,5.75
2019-05-12T21:16:16.588Z,6.00
2019-05-12T21:18:49.936Z,1.75
2019-05-12T21:21:19.263Z,3.00
2019-05-12T21:24:00.269Z,3.00
2019-05-12T21:26:39.946Z,2.00
2019-05-12T21:29:13.961Z,2.00
2019-05-12T21:31:49.169Z,5.00
2019-05-12T21:34:25.396Z,2.00
2019-05-12T21:36:59.089Z,3.25
2019-05-12T21:39:33.680Z,2.00
2019-05-12T21:42:07.422Z,3.00
2019-05-12T21:44:46.251Z,2.00
2019-05-12T21:47:16.535Z,4.20
2019-05-12T21:49:55.120Z,2.75
2019-05-12T21:52:25.641Z,2.00
2019-05-12T21:54:59.339Z,4.75
2019-05-12T21:57:34.528Z,4.00
2019-05-12T22:00:18.259Z,4.20
2019-05-12T22:02:49.722Z,5.50
2019-05-12T22:05:46.650Z,8.50
2019-05-12T22:07:58.859Z,6.50
2019-05-12T22:10:34.464Z,1.00
2019-05-12T22:13:14.117Z,4.40
2019-05-12T22:15:43.382Z,2.00
2019-05-12T22:18:17.079Z,2.40
2019-05-12T22:20:52.336Z,1.50
2019-05-12T22:23:26.346Z,4.75
2019-05-12T22:26:00.506Z,4.40
2019-05-12T22:28:34.419Z,2.00
2019-05-12T22:31:08.150Z,4.00
2019-05-12T22:33:51.578Z,3.20
2019-05-12T22:36:25.741Z,5.00
2019-05-12T22:39:00.520Z,4.00
2019-05-12T22:41:30.450Z,4.75
2019-05-12T22:44:03.425Z,4.00
2019-05-12T22:46:37.104Z,4.00
2019-05-12T22:49:16.815Z,2.00
2019-05-12T22:51:46.579Z,5.25
2019-05-12T22:54:20.508Z,3.00
2019-05-12T22:56:55.196Z,5.00
2019-05-12T22:59:34.311Z,2.00
2019-05-12T23:02:05.001Z,3.20
2019-05-12T23:04:40.365Z,5.25
2019-05-12T23:07:19.187Z,4.75
2019-05-12T23:09:49.661Z,5.75
2019-05-12T23:12:23.720Z,2.50
2019-05-12T23:15:02.892Z,1.50
2019-05-12T23:17:33.847Z,4.25
2019-05-12T23:20:07.842Z,4.00
2019-05-12T23:22:43.665Z,8.00
2019-05-12T23:25:21.347Z,4.40
2019-05-12T23:27:54.241Z,5.50
2019-05-12T23:30:27.713Z,6.50
2019-05-12T23:33:03.556Z,4.75
2019-05-12T23:35:39.419Z,5.00
2019-05-12T23:38:18.790Z,8.40
2019-05-12T23:40:48.587Z,4.00
2019-05-12T23:43:23.727Z,5.00
2019-05-12T23:45:57.649Z,4.75
2019-05-12T23:48:33.371Z,4.00
2019-05-12T23:51:06.739Z,7.75
2019-05-12T23:53:40.410Z,4.00
2019-05-12T23:56:14.105Z,4.00
2019-05-12T23:58:47.785Z,4.00
